Stanwood, Michigan
Current Conditions -  °F | °C
As of 8:34 PM on Sunday 23 Nov 2014 (Local Time) from KRQB Reporting Station
Unknown Precip Unknown Precip  
Wind Chill: 43°   Ceiling: 400
Heat Index: 47°   Visibility: 4mi
Dew Point: 47°   Wind: 9mph
Humidity: 100%   Direction: 130°SE
Pressure: 29.42"   Gusts: NA
Location:  43.58°N, 85.45°W
Report Text: KRQB 240134Z AUTO 13008KT 4SM UP OVC004 09/09 A2942 RMK AO2 P0009 T00860086
Loading
Personal Weather Stations






























Interactive Weather Map New forecast layout! Learn more

10-Day Weather Forecast

Advertisements
Track Severe Weather on mobile